Cape Coral, FL (33904)

11:48 AM EDT on July 23, 2016 (GMT -0400)
SE Cape Coral | | Change Station

Elev 16 ft 26.60 °N, 81.95 °W | Updated 11 minutes ago

Clear
Clear
90.5 °F
Feels Like 99 °F
N
2.7
Wind Variable Wind from North

Today
High -- | Low -- °F
--% Chance of Precip.
Yesterday
High -- | Low -- °F
Precip. -- in
Pressure 30.05 in
Visibility 10.0 miles
Clouds Clear
Heat Index 99 °F
Dew Point 73 °F
Humidity 56%
Rainfall 0.00 in
Snow Depth Not available.
6:48 AM 8:19 PM
Waning Gibbous, 84% visible
METAR KFMY 231453Z 00000KT 10SM CLR 29/22 A3004 RMK AO2 SLP174 T02940222 53007
Pressure 30.05 in
Visibility 10.0 miles
Clouds Clear
Heat Index 99 °F
Dew Point 73 °F
Humidity 56%
Rainfall 0.00 in
Snow Depth Not available.
6:48 AM 8:19 PM
Waning Gibbous, 84% visible
METAR KFMY 231453Z 00000KT 10SM CLR 29/22 A3004 RMK AO2 SLP174 T02940222 53007

10-Day Weather Forecast

Almanac

Astronomy

Jul. 23, 2016 Rise Set
Actual Time
Civil Twilight
Nautical Twilight
Astronomical Twilight
Moon
Length of Visible Light
Length of Day
Tomorrow will be .
, % of the Moon is Illuminated

Today's Extremes

State Highs State Lows

Community

WunderPhotos

Upload Photos

1,926,848 photos uploaded!

WunderBlog® & News

Nearby

Air Quality

  Air Quality AQ Index Pollutant
Not available.

Snow Depth

Station Depth Elevation

Earthquake Activity

City Distance Mag. Time & Date
Minimum magnitude displayed is 2.5.

Coastal Water Temperatures

Place Temperature

Stations

Nearby Weather Stations

Station Location Temp. Windchill Dew Point Humidity Wind Precip. Elev Updated Type
                   

Watches & Warnings

There are currently no watches in effect.